Sunday, July 22, 2018, 6:12 PM EDT
Back to Local

KGNR, Greenville

Location: Greenville, ME, United States Lat: 45.467
Local Time: 6:12 PM EDT (22:12 GMT) Lon: -69.583
Time Zone: US/Eastern Elev: 1400 ft

Show me the last for .
Show Coded

Time T Td Feel RH Dir Speed Gust Alt SLP Vis Weather Sky Remarks
2018-07-22 17:56 69 68 - 96 130° 8 - 30.21 30.21 0 None
2018-07-22 16:56 69 65 - 86 120° 10 - 30.22 30.22 0 None
2018-07-22 15:56 68 63 - 83 110° 10 - 30.22 30.22 0 None
2018-07-22 14:56 67 59 - 75 130° 9 - 30.22 30.22 0 None
2018-07-22 13:56 71 57 76 61 150° 8 - 30.22 30.21 0 6-hr Min Temp (2pm): 62.1°F
6-hr Max Temp (2pm): 73.0°F
2018-07-22 12:56 72 55 76 55 140° 8 - 30.22 30.22 0 None
2018-07-22 11:56 72 52 76 49 130° 10 - 30.23 30.22 0 None
2018-07-22 10:56 71 51 76 49 Variable 5 - 30.22 30.22 0 None
2018-07-22 09:56 69 56 - 62 Variable 5 - 30.22 30.21 0 None
2018-07-22 08:56 64 55 - 72 140° 8 - 30.21 30.20 0 None
2018-07-22 07:56 62 55 - 77 140° 5 - 30.20 30.19 0 6-hr Min Temp (8am): 55.9°F
6-hr Max Temp (8am): 62.1°F
2018-07-22 06:56 60 55 - 83 100° 7 - 30.19 30.18 0 None
2018-07-22 05:56 57 55 - 93 110° 3 - 30.18 30.17 0 None
2018-07-22 04:56 57 55 - 93 120° 5 - 30.17 30.16 0 None
2018-07-22 03:56 58 55 - 90 130° 6 - 30.17 30.17 0 None
2018-07-22 02:56 58 54 - 86 70° 3 - 30.16 30.15 0 None
2018-07-22 01:56 59 54 - 83 100° 3 - 30.16 30.15 0 6-hr Min Temp (2am): 57.9°F
6-hr Max Temp (2am): 71.1°F
2018-07-22 00:56 60 55 - 83 - Calm - 30.16 30.16 0 24-hr Min Temp (1am): 55.9°F
24-hr Max Temp (1am): 79.0°F
2018-07-21 23:56 62 55 - 77 - Calm - 30.18 30.17 0 None
2018-07-21 22:56 64 55 - 72 150° 5 - 30.17 30.16 0 None
2018-07-21 21:56 67 54 - 63 130° 7 - 30.16 30.15 0 None
2018-07-21 20:56 67 55 - 65 - Calm - 30.16 30.15 0 None
2018-07-21 19:56 71 54 76 54 - Calm - 30.15 30.14 0 6-hr Min Temp (8pm): 71.1°F
6-hr Max Temp (8pm): 79.0°F
2018-07-21 18:56 75 53 77 46 Variable 3 - 30.15 30.14 0 None

Support USWX by starting your Amazon purchase here.